sensor_id;sensor_type;location;lat;lon;timestamp;pressure;altitude;pressure_sealevel;temperature;humidity
67842;BME280;54642;59.126;37.876;2022-07-26T00:02:15;99473.44;;;21.93;75.97
67842;BME280;54642;59.126;37.876;2022-07-26T00:04:41;99471.44;;;21.97;75.96
67842;BME280;54642;59.126;37.876;2022-07-26T00:07:07;99461.81;;;21.96;75.93
67842;BME280;54642;59.126;37.876;2022-07-26T00:09:32;99470.88;;;22.06;75.63
67842;BME280;54642;59.126;37.876;2022-07-26T00:11:58;99453.06;;;21.95;76.04
67842;BME280;54642;59.126;37.876;2022-07-26T00:14:24;99438.66;;;21.86;75.68
67842;BME280;54642;59.126;37.876;2022-07-26T00:16:50;99457.28;;;21.98;75.92
67842;BME280;54642;59.126;37.876;2022-07-26T00:19:16;99466.16;;;21.97;75.97
67842;BME280;54642;59.126;37.876;2022-07-26T00:21:42;99478.41;;;21.98;76.07
67842;BME280;54642;59.126;37.876;2022-07-26T00:24:08;99466.81;;;22.00;76.02
67842;BME280;54642;59.126;37.876;2022-07-26T00:26:35;99466.81;;;22.00;75.44
67842;BME280;54642;59.126;37.876;2022-07-26T00:29:00;99434.78;;;21.78;75.76
67842;BME280;54642;59.126;37.876;2022-07-26T00:31:29;99444.50;;;21.77;75.23
67842;BME280;54642;59.126;37.876;2022-07-26T00:33:55;99456.47;;;21.83;75.07
67842;BME280;54642;59.126;37.876;2022-07-26T00:36:21;99466.63;;;21.75;76.21
67842;BME280;54642;59.126;37.876;2022-07-26T00:38:47;99455.63;;;21.68;76.33
67842;BME280;54642;59.126;37.876;2022-07-26T00:41:13;99414.22;;;21.40;76.34
67842;BME280;54642;59.126;37.876;2022-07-26T00:43:56;99459.56;;;21.75;76.32
67842;BME280;54642;59.126;37.876;2022-07-26T00:46:22;99466.81;;;21.72;76.18
67842;BME280;54642;59.126;37.876;2022-07-26T00:48:48;99460.78;;;21.69;75.73
67842;BME280;54642;59.126;37.876;2022-07-26T00:51:14;99466.16;;;21.68;76.51
67842;BME280;54642;59.126;37.876;2022-07-26T00:53:41;99454.28;;;21.61;76.11
67842;BME280;54642;59.126;37.876;2022-07-26T00:56:07;99469.16;;;21.76;75.60
67842;BME280;54642;59.126;37.876;2022-07-26T00:58:33;99470.47;;;21.69;75.74
67842;BME280;54642;59.126;37.876;2022-07-26T01:00:59;99486.22;;;21.70;75.68
67842;BME280;54642;59.126;37.876;2022-07-26T01:03:24;99473.50;;;21.63;76.02
67842;BME280;54642;59.126;37.876;2022-07-26T01:05:50;99478.66;;;21.50;76.59
67842;BME280;54642;59.126;37.876;2022-07-26T01:08:16;99476.09;;;21.48;76.29
67842;BME280;54642;59.126;37.876;2022-07-26T01:10:42;99462.19;;;21.30;76.26
67842;BME280;54642;59.126;37.876;2022-07-26T01:13:08;99467.84;;;21.39;76.40
67842;BME280;54642;59.126;37.876;2022-07-26T01:15:34;99464.53;;;21.35;76.03
67842;BME280;54642;59.126;37.876;2022-07-26T01:18:00;99465.41;;;21.36;76.13
67842;BME280;54642;59.126;37.876;2022-07-26T01:20:26;99488.94;;;21.39;76.05
67842;BME280;54642;59.126;37.876;2022-07-26T01:22:52;99480.66;;;21.30;76.31
67842;BME280;54642;59.126;37.876;2022-07-26T01:25:30;99486.66;;;21.32;76.28
67842;BME280;54642;59.126;37.876;2022-07-26T01:27:57;99430.13;;;21.08;76.10
67842;BME280;54642;59.126;37.876;2022-07-26T01:30:23;99488.53;;;21.46;76.44
67842;BME280;54642;59.126;37.876;2022-07-26T01:32:49;99463.53;;;21.38;76.88
67842;BME280;54642;59.126;37.876;2022-07-26T01:35:14;99479.91;;;21.59;76.58
67842;BME280;54642;59.126;37.876;2022-07-26T01:37:40;99479.59;;;21.63;76.43
67842;BME280;54642;59.126;37.876;2022-07-26T01:40:07;99500.69;;;21.63;76.12
67842;BME280;54642;59.126;37.876;2022-07-26T01:42:33;99496.38;;;21.62;76.76
67842;BME280;54642;59.126;37.876;2022-07-26T01:44:58;99498.81;;;21.65;76.06
67842;BME280;54642;59.126;37.876;2022-07-26T01:47:24;99446.69;;;21.40;76.36
67842;BME280;54642;59.126;37.876;2022-07-26T01:49:50;99493.94;;;21.59;76.04
67842;BME280;54642;59.126;37.876;2022-07-26T01:52:16;99495.41;;;21.49;76.87
67842;BME280;54642;59.126;37.876;2022-07-26T01:54:43;99481.91;;;21.39;76.83
67842;BME280;54642;59.126;37.876;2022-07-26T01:57:09;99485.72;;;21.33;76.96
67842;BME280;54642;59.126;37.876;2022-07-26T01:59:35;99456.47;;;21.08;77.01
67842;BME280;54642;59.126;37.876;2022-07-26T02:02:01;99478.91;;;21.15;77.07
67842;BME280;54642;59.126;37.876;2022-07-26T02:04:27;99495.03;;;21.25;76.80
67842;BME280;54642;59.126;37.876;2022-07-26T02:07:11;99465.66;;;21.01;76.69
67842;BME280;54642;59.126;37.876;2022-07-26T02:09:37;99471.09;;;20.98;76.61
67842;BME280;54642;59.126;37.876;2022-07-26T02:12:03;99484.03;;;21.02;76.30
67842;BME280;54642;59.126;37.876;2022-07-26T02:14:29;99485.81;;;21.02;76.60
67842;BME280;54642;59.126;37.876;2022-07-26T02:16:55;99501.00;;;21.12;77.12
67842;BME280;54642;59.126;37.876;2022-07-26T02:19:27;99484.63;;;21.07;77.17
67842;BME280;54642;59.126;37.876;2022-07-26T02:21:53;99474.50;;;21.00;77.05
67842;BME280;54642;59.126;37.876;2022-07-26T02:24:19;99490.13;;;21.03;77.25
67842;BME280;54642;59.126;37.876;2022-07-26T02:26:45;99512.41;;;20.97;77.34
67842;BME280;54642;59.126;37.876;2022-07-26T02:29:11;99459.94;;;20.78;77.53
67842;BME280;54642;59.126;37.876;2022-07-26T02:31:37;99460.78;;;20.94;77.35
67842;BME280;54642;59.126;37.876;2022-07-26T02:34:03;99507.78;;;21.17;77.70
67842;BME280;54642;59.126;37.876;2022-07-26T02:36:29;99506.41;;;21.25;77.22
67842;BME280;54642;59.126;37.876;2022-07-26T02:38:54;99502.31;;;21.05;77.63
67842;BME280;54642;59.126;37.876;2022-07-26T02:41:20;99508.03;;;21.12;77.31
67842;BME280;54642;59.126;37.876;2022-07-26T02:43:46;99457.25;;;20.94;77.33
67842;BME280;54642;59.126;37.876;2022-07-26T02:46:12;99489.25;;;21.18;77.08
67842;BME280;54642;59.126;37.876;2022-07-26T02:48:38;99492.13;;;21.29;77.40
67842;BME280;54642;59.126;37.876;2022-07-26T02:51:04;99461.34;;;21.00;76.80
67842;BME280;54642;59.126;37.876;2022-07-26T02:53:30;99451.16;;;20.93;77.34
67842;BME280;54642;59.126;37.876;2022-07-26T02:55:55;99510.69;;;21.12;77.60
67842;BME280;54642;59.126;37.876;2022-07-26T02:58:21;99509.50;;;21.18;77.18
67842;BME280;54642;59.126;37.876;2022-07-26T03:00:49;99469.69;;;20.92;77.40
67842;BME280;54642;59.126;37.876;2022-07-26T03:03:15;99510.34;;;21.18;77.09
67842;BME280;54642;59.126;37.876;2022-07-26T03:05:41;99465.16;;;20.94;77.11
67842;BME280;54642;59.126;37.876;2022-07-26T03:08:07;99464.44;;;20.76;76.97
67842;BME280;54642;59.126;37.876;2022-07-26T03:10:33;99459.69;;;20.67;77.79
67842;BME280;54642;59.126;37.876;2022-07-26T03:12:58;99501.38;;;20.90;77.90
67842;BME280;54642;59.126;37.876;2022-07-26T03:15:24;99520.00;;;20.87;78.03
67842;BME280;54642;59.126;37.876;2022-07-26T03:17:50;99521.00;;;21.01;78.27
67842;BME280;54642;59.126;37.876;2022-07-26T03:20:16;99522.25;;;21.09;77.55
67842;BME280;54642;59.126;37.876;2022-07-26T03:22:42;99524.38;;;21.03;76.84
67842;BME280;54642;59.126;37.876;2022-07-26T03:25:08;99453.03;;;20.60;76.80
67842;BME280;54642;59.126;37.876;2022-07-26T03:27:34;99522.34;;;20.92;77.02
67842;BME280;54642;59.126;37.876;2022-07-26T03:29:59;99505.28;;;20.67;77.27
67842;BME280;54642;59.126;37.876;2022-07-26T03:32:26;99503.84;;;20.62;77.54
67842;BME280;54642;59.126;37.876;2022-07-26T03:34:52;99508.28;;;20.61;77.33
67842;BME280;54642;59.126;37.876;2022-07-26T03:37:18;99539.44;;;20.69;78.07
67842;BME280;54642;59.126;37.876;2022-07-26T03:39:44;99543.78;;;20.70;77.95
67842;BME280;54642;59.126;37.876;2022-07-26T03:42:10;99537.06;;;20.64;77.64
67842;BME280;54642;59.126;37.876;2022-07-26T03:44:36;99534.25;;;20.51;78.56
67842;BME280;54642;59.126;37.876;2022-07-26T03:47:02;99540.88;;;20.59;79.05
67842;BME280;54642;59.126;37.876;2022-07-26T03:49:28;99513.25;;;20.34;79.01
67842;BME280;54642;59.126;37.876;2022-07-26T03:51:54;99529.25;;;20.63;78.50
67842;BME280;54642;59.126;37.876;2022-07-26T03:54:22;99537.75;;;20.68;78.42
67842;BME280;54642;59.126;37.876;2022-07-26T03:56:54;99552.69;;;20.83;78.26
67842;BME280;54642;59.126;37.876;2022-07-26T03:59:20;99479.97;;;20.49;78.47
67842;BME280;54642;59.126;37.876;2022-07-26T04:01:48;99543.34;;;20.93;77.67
67842;BME280;54642;59.126;37.876;2022-07-26T04:04:15;99507.69;;;20.72;77.93
67842;BME280;54642;59.126;37.876;2022-07-26T04:06:44;99548.44;;;20.97;77.80
67842;BME280;54642;59.126;37.876;2022-07-26T04:09:10;99515.75;;;20.85;77.70
67842;BME280;54642;59.126;37.876;2022-07-26T04:11:36;99548.75;;;21.06;77.35
67842;BME280;54642;59.126;37.876;2022-07-26T04:14:03;99546.56;;;21.14;77.52
67842;BME280;54642;59.126;37.876;2022-07-26T04:16:29;99504.34;;;21.00;77.33
67842;BME280;54642;59.126;37.876;2022-07-26T04:18:55;99546.03;;;21.24;76.98
67842;BME280;54642;59.126;37.876;2022-07-26T04:21:21;99521.09;;;20.83;77.62
67842;BME280;54642;59.126;37.876;2022-07-26T04:23:47;99519.56;;;20.79;78.31
67842;BME280;54642;59.126;37.876;2022-07-26T04:26:12;99428.09;;;20.35;77.91
67842;BME280;54642;59.126;37.876;2022-07-26T04:28:42;99517.19;;;20.74;77.95
67842;BME280;54642;59.126;37.876;2022-07-26T04:31:08;99548.09;;;21.03;77.73
67842;BME280;54642;59.126;37.876;2022-07-26T04:33:34;99550.22;;;20.96;78.03
67842;BME280;54642;59.126;37.876;2022-07-26T04:36:00;99556.06;;;21.01;77.92
67842;BME280;54642;59.126;37.876;2022-07-26T04:38:26;99510.38;;;20.86;77.76
67842;BME280;54642;59.126;37.876;2022-07-26T04:40:52;99548.00;;;21.20;77.37
67842;BME280;54642;59.126;37.876;2022-07-26T04:43:19;99520.75;;;21.05;77.69
67842;BME280;54642;59.126;37.876;2022-07-26T04:45:45;99553.72;;;21.12;77.06
67842;BME280;54642;59.126;37.876;2022-07-26T04:48:12;99555.22;;;21.17;77.13
67842;BME280;54642;59.126;37.876;2022-07-26T04:50:38;99503.59;;;20.66;77.67
67842;BME280;54642;59.126;37.876;2022-07-26T04:53:04;99559.81;;;21.13;77.57
67842;BME280;54642;59.126;37.876;2022-07-26T04:55:30;99566.44;;;21.20;77.77
67842;BME280;54642;59.126;37.876;2022-07-26T04:57:56;99558.78;;;21.16;77.41
67842;BME280;54642;59.126;37.876;2022-07-26T05:00:23;99554.00;;;21.22;77.51
67842;BME280;54642;59.126;37.876;2022-07-26T05:02:54;99544.00;;;21.13;77.40
67842;BME280;54642;59.126;37.876;2022-07-26T05:05:22;99567.84;;;21.42;76.76
67842;BME280;54642;59.126;37.876;2022-07-26T05:07:51;99555.78;;;21.38;76.34
67842;BME280;54642;59.126;37.876;2022-07-26T05:10:19;99558.00;;;21.45;76.84
67842;BME280;54642;59.126;37.876;2022-07-26T05:12:45;99548.56;;;21.41;76.34
67842;BME280;54642;59.126;37.876;2022-07-26T05:15:12;99532.09;;;21.22;76.43
67842;BME280;54642;59.126;37.876;2022-07-26T05:17:39;99528.03;;;21.16;76.78
67842;BME280;54642;59.126;37.876;2022-07-26T05:20:06;99573.94;;;21.42;76.59
67842;BME280;54642;59.126;37.876;2022-07-26T05:22:34;99546.63;;;21.29;76.41
67842;BME280;54642;59.126;37.876;2022-07-26T05:25:01;99558.59;;;21.35;76.63
67842;BME280;54642;59.126;37.876;2022-07-26T05:27:27;99577.88;;;21.51;76.36
67842;BME280;54642;59.126;37.876;2022-07-26T05:29:53;99572.19;;;21.59;75.83
67842;BME280;54642;59.126;37.876;2022-07-26T05:32:21;99570.09;;;21.64;75.67
67842;BME280;54642;59.126;37.876;2022-07-26T05:34:47;99555.72;;;21.69;75.17
67842;BME280;54642;59.126;37.876;2022-07-26T05:37:13;99573.22;;;21.70;75.31
67842;BME280;54642;59.126;37.876;2022-07-26T05:39:39;99569.09;;;21.66;75.24
67842;BME280;54642;59.126;37.876;2022-07-26T05:42:05;99573.22;;;21.70;74.95
67842;BME280;54642;59.126;37.876;2022-07-26T05:44:31;99566.63;;;21.63;75.44
67842;BME280;54642;59.126;37.876;2022-07-26T05:46:57;99573.44;;;21.82;75.01
67842;BME280;54642;59.126;37.876;2022-07-26T05:49:23;99576.47;;;21.90;73.91
67842;BME280;54642;59.126;37.876;2022-07-26T05:51:51;99490.31;;;21.46;73.98
67842;BME280;54642;59.126;37.876;2022-07-26T05:54:17;99574.78;;;21.89;74.03
67842;BME280;54642;59.126;37.876;2022-07-26T05:56:46;99573.09;;;21.88;73.81
67842;BME280;54642;59.126;37.876;2022-07-26T05:59:11;99564.31;;;21.73;74.14
67842;BME280;54642;59.126;37.876;2022-07-26T06:01:37;99572.31;;;21.72;74.59
67842;BME280;54642;59.126;37.876;2022-07-26T06:04:03;99570.69;;;21.69;74.77
67842;BME280;54642;59.126;37.876;2022-07-26T06:06:29;99550.81;;;21.63;74.47
67842;BME280;54642;59.126;37.876;2022-07-26T06:08:55;99563.25;;;21.76;74.50
67842;BME280;54642;59.126;37.876;2022-07-26T06:11:21;99571.00;;;21.79;73.74
67842;BME280;54642;59.126;37.876;2022-07-26T06:13:47;99564.31;;;21.73;74.24
67842;BME280;54642;59.126;37.876;2022-07-26T06:16:13;99567.78;;;21.74;74.74
67842;BME280;54642;59.126;37.876;2022-07-26T06:18:39;99537.13;;;21.57;74.50
67842;BME280;54642;59.126;37.876;2022-07-26T06:21:05;99556.09;;;21.78;74.28
67842;BME280;54642;59.126;37.876;2022-07-26T06:23:32;99562.88;;;21.82;74.40
67842;BME280;54642;59.126;37.876;2022-07-26T06:25:58;99562.53;;;21.88;74.62
67842;BME280;54642;59.126;37.876;2022-07-26T06:28:24;99554.22;;;21.80;74.63
67842;BME280;54642;59.126;37.876;2022-07-26T06:30:50;99551.88;;;21.75;74.72
67842;BME280;54642;59.126;37.876;2022-07-26T06:33:15;99563.00;;;21.80;74.71
67842;BME280;54642;59.126;37.876;2022-07-26T06:35:41;99527.44;;;21.57;74.49
67842;BME280;54642;59.126;37.876;2022-07-26T06:38:07;99544.59;;;21.64;74.51
67842;BME280;54642;59.126;37.876;2022-07-26T06:40:33;99526.78;;;21.54;74.56
67842;BME280;54642;59.126;37.876;2022-07-26T06:43:00;99518.09;;;21.51;74.41
67842;BME280;54642;59.126;37.876;2022-07-26T06:45:27;99567.38;;;21.65;74.26
67842;BME280;54642;59.126;37.876;2022-07-26T06:47:53;99563.97;;;21.63;74.19
67842;BME280;54642;59.126;37.876;2022-07-26T06:50:20;99555.22;;;21.63;74.18
67842;BME280;54642;59.126;37.876;2022-07-26T06:52:46;99523.78;;;21.44;74.51
67842;BME280;54642;59.126;37.876;2022-07-26T06:55:12;99565.31;;;21.70;73.72
67842;BME280;54642;59.126;37.876;2022-07-26T06:57:39;99533.19;;;21.64;74.35
67842;BME280;54642;59.126;37.876;2022-07-26T07:00:07;99520.50;;;21.70;73.69
67842;BME280;54642;59.126;37.876;2022-07-26T07:02:34;99548.03;;;21.81;73.28
67842;BME280;54642;59.126;37.876;2022-07-26T07:04:59;99563.69;;;21.98;72.94
67842;BME280;54642;59.126;37.876;2022-07-26T07:07:25;99569.06;;;22.11;73.80
67842;BME280;54642;59.126;37.876;2022-07-26T07:09:51;99559.66;;;22.21;72.72
67842;BME280;54642;59.126;37.876;2022-07-26T07:12:17;99573.03;;;22.18;72.53
67842;BME280;54642;59.126;37.876;2022-07-26T07:14:43;99566.91;;;22.18;72.41
67842;BME280;54642;59.126;37.876;2022-07-26T07:17:09;99558.47;;;22.27;72.23
67842;BME280;54642;59.126;37.876;2022-07-26T07:19:35;99557.50;;;22.42;72.36
67842;BME280;54642;59.126;37.876;2022-07-26T07:22:03;99560.78;;;22.46;71.44
67842;BME280;54642;59.126;37.876;2022-07-26T07:24:31;99566.38;;;22.41;72.21
67842;BME280;54642;59.126;37.876;2022-07-26T07:26:57;99523.94;;;22.30;72.35
67842;BME280;54642;59.126;37.876;2022-07-26T07:29:25;99527.53;;;22.43;72.32
67842;BME280;54642;59.126;37.876;2022-07-26T07:31:51;99549.47;;;22.58;72.34
67842;BME280;54642;59.126;37.876;2022-07-26T07:34:17;99563.50;;;22.59;71.89
67842;BME280;54642;59.126;37.876;2022-07-26T07:36:50;99567.13;;;22.58;71.60
67842;BME280;54642;59.126;37.876;2022-07-26T07:39:17;99556.56;;;22.58;71.45
67842;BME280;54642;59.126;37.876;2022-07-26T07:41:47;99561.25;;;22.67;70.97
67842;BME280;54642;59.126;37.876;2022-07-26T07:44:13;99526.13;;;22.38;71.77
67842;BME280;54642;59.126;37.876;2022-07-26T07:46:39;99562.75;;;22.57;71.40
67842;BME280;54642;59.126;37.876;2022-07-26T07:49:05;99566.06;;;22.60;70.43
67842;BME280;54642;59.126;37.876;2022-07-26T07:51:31;99572.28;;;22.74;70.90
67842;BME280;54642;59.126;37.876;2022-07-26T07:53:58;99578.03;;;22.80;70.85
67842;BME280;54642;59.126;37.876;2022-07-26T07:56:24;99573.13;;;22.74;70.84
67842;BME280;54642;59.126;37.876;2022-07-26T07:58:50;99573.31;;;22.71;70.70
67842;BME280;54642;59.126;37.876;2022-07-26T08:01:16;99585.75;;;22.69;71.26
67842;BME280;54642;59.126;37.876;2022-07-26T08:03:42;99580.94;;;22.76;70.81
67842;BME280;54642;59.126;37.876;2022-07-26T08:06:08;99539.97;;;22.56;70.14
67842;BME280;54642;59.126;37.876;2022-07-26T08:08:35;99556.16;;;22.64;70.62
67842;BME280;54642;59.126;37.876;2022-07-26T08:11:02;99584.72;;;22.86;71.04
67842;BME280;54642;59.126;37.876;2022-07-26T08:13:28;99530.63;;;22.64;70.84
67842;BME280;54642;59.126;37.876;2022-07-26T08:15:54;99583.28;;;23.09;70.08
67842;BME280;54642;59.126;37.876;2022-07-26T08:18:21;99580.97;;;23.17;70.11
67842;BME280;54642;59.126;37.876;2022-07-26T08:20:47;99585.66;;;23.27;69.34
67842;BME280;54642;59.126;37.876;2022-07-26T08:23:13;99546.63;;;23.03;69.75
67842;BME280;54642;59.126;37.876;2022-07-26T08:25:39;99598.63;;;23.17;69.52
67842;BME280;54642;59.126;37.876;2022-07-26T08:28:05;99597.13;;;23.13;70.28
67842;BME280;54642;59.126;37.876;2022-07-26T08:30:32;99587.78;;;23.07;69.83
67842;BME280;54642;59.126;37.876;2022-07-26T08:32:58;99591.75;;;23.00;70.65
67842;BME280;54642;59.126;37.876;2022-07-26T08:35:24;99583.16;;;22.96;70.43
67842;BME280;54642;59.126;37.876;2022-07-26T08:37:50;99594.19;;;23.03;70.40
67842;BME280;54642;59.126;37.876;2022-07-26T08:40:16;99565.16;;;22.89;70.45
67842;BME280;54642;59.126;37.876;2022-07-26T08:42:52;99588.56;;;23.09;70.27
67842;BME280;54642;59.126;37.876;2022-07-26T08:45:29;99592.28;;;23.19;70.59
67842;BME280;54642;59.126;37.876;2022-07-26T08:47:56;99594.31;;;23.43;69.69
67842;BME280;54642;59.126;37.876;2022-07-26T08:50:23;99569.47;;;23.71;68.52
67842;BME280;54642;59.126;37.876;2022-07-26T08:52:50;99580.16;;;24.10;67.86
67842;BME280;54642;59.126;37.876;2022-07-26T08:55:17;99582.25;;;24.43;66.66
67842;BME280;54642;59.126;37.876;2022-07-26T08:57:44;99576.41;;;24.51;66.73
67842;BME280;54642;59.126;37.876;2022-07-26T09:02:47;99582.13;;;24.70;66.02
67842;BME280;54642;59.126;37.876;2022-07-26T09:05:14;99586.44;;;24.71;65.89
67842;BME280;54642;59.126;37.876;2022-07-26T09:07:42;99585.13;;;24.53;66.08
67842;BME280;54642;59.126;37.876;2022-07-26T09:10:12;99593.47;;;24.34;66.84
67842;BME280;54642;59.126;37.876;2022-07-26T09:12:40;99578.78;;;24.17;66.88
67842;BME280;54642;59.126;37.876;2022-07-26T09:15:16;99590.53;;;24.13;66.93
67842;BME280;54642;59.126;37.876;2022-07-26T09:17:48;99588.50;;;24.04;67.03
67842;BME280;54642;59.126;37.876;2022-07-26T09:20:26;99572.47;;;23.79;66.68
67842;BME280;54642;59.126;37.876;2022-07-26T09:22:59;99607.44;;;23.97;67.17
67842;BME280;54642;59.126;37.876;2022-07-26T09:25:28;99592.09;;;23.90;67.43
67842;BME280;54642;59.126;37.876;2022-07-26T09:27:55;99558.16;;;23.69;68.03
67842;BME280;54642;59.126;37.876;2022-07-26T09:30:21;99590.19;;;23.92;67.86
67842;BME280;54642;59.126;37.876;2022-07-26T09:33:04;99543.44;;;23.65;67.53
67842;BME280;54642;59.126;37.876;2022-07-26T09:35:35;99591.38;;;23.88;67.78
67842;BME280;54642;59.126;37.876;2022-07-26T09:38:14;99591.75;;;23.82;67.25
67842;BME280;54642;59.126;37.876;2022-07-26T09:40:40;99489.53;;;23.28;67.45
67842;BME280;54642;59.126;37.876;2022-07-26T09:43:07;99597.94;;;24.08;66.86
67842;BME280;54642;59.126;37.876;2022-07-26T09:45:35;99587.25;;;24.22;66.06
67842;BME280;54642;59.126;37.876;2022-07-26T09:48:02;99585.34;;;24.24;65.97
67842;BME280;54642;59.126;37.876;2022-07-26T09:50:31;99550.06;;;24.11;66.47
67842;BME280;54642;59.126;37.876;2022-07-26T09:53:09;99594.97;;;24.25;66.42
67842;BME280;54642;59.126;37.876;2022-07-26T09:55:55;99590.53;;;24.26;66.07
67842;BME280;54642;59.126;37.876;2022-07-26T09:58:22;99588.38;;;24.18;66.31
67842;BME280;54642;59.126;37.876;2022-07-26T10:00:49;99590.72;;;24.10;66.13
67842;BME280;54642;59.126;37.876;2022-07-26T10:03:15;99593.47;;;24.08;66.68
67842;BME280;54642;59.126;37.876;2022-07-26T10:05:41;99593.28;;;24.11;66.77
67842;BME280;54642;59.126;37.876;2022-07-26T10:08:07;99580.78;;;24.01;66.03
67842;BME280;54642;59.126;37.876;2022-07-26T10:10:44;99594.13;;;24.12;65.76
67842;BME280;54642;59.126;37.876;2022-07-26T10:13:11;99587.56;;;24.17;65.22
67842;BME280;54642;59.126;37.876;2022-07-26T10:15:50;99557.91;;;24.00;65.54
67842;BME280;54642;59.126;37.876;2022-07-26T10:21:27;99587.34;;;24.08;66.18
67842;BME280;54642;59.126;37.876;2022-07-26T10:24:01;99580.16;;;23.97;66.46
67842;BME280;54642;59.126;37.876;2022-07-26T10:34:37;99594.41;;;23.94;66.76
67842;BME280;54642;59.126;37.876;2022-07-26T10:37:09;99592.41;;;24.11;66.03
67842;BME280;54642;59.126;37.876;2022-07-26T10:39:37;99546.56;;;24.10;65.44
67842;BME280;54642;59.126;37.876;2022-07-26T10:42:08;99583.72;;;24.47;64.35
67842;BME280;54642;59.126;37.876;2022-07-26T10:44:36;99574.22;;;24.58;64.47
67842;BME280;54642;59.126;37.876;2022-07-26T10:47:10;99578.22;;;24.63;63.90
67842;BME280;54642;59.126;37.876;2022-07-26T10:49:38;99585.09;;;24.66;64.13
67842;BME280;54642;59.126;37.876;2022-07-26T10:57:26;99564.97;;;24.63;64.55
67842;BME280;54642;59.126;37.876;2022-07-26T10:59:53;99550.78;;;24.39;64.59
67842;BME280;54642;59.126;37.876;2022-07-26T11:02:25;99549.72;;;24.28;64.45
67842;BME280;54642;59.126;37.876;2022-07-26T11:05:06;99585.13;;;24.40;64.99
67842;BME280;54642;59.126;37.876;2022-07-26T11:08:07;99579.59;;;24.30;65.76
67842;BME280;54642;59.126;37.876;2022-07-26T11:10:36;99585.75;;;24.18;65.29
67842;BME280;54642;59.126;37.876;2022-07-26T11:13:06;99578.78;;;24.04;65.49
67842;BME280;54642;59.126;37.876;2022-07-26T11:15:34;99578.25;;;23.99;65.89
67842;BME280;54642;59.126;37.876;2022-07-26T11:18:15;99534.56;;;23.66;65.97
67842;BME280;54642;59.126;37.876;2022-07-26T11:20:43;99574.41;;;23.90;66.12
67842;BME280;54642;59.126;37.876;2022-07-26T11:23:47;99580.66;;;23.89;65.90
67842;BME280;54642;59.126;37.876;2022-07-26T11:26:18;99567.94;;;23.82;65.65
67842;BME280;54642;59.126;37.876;2022-07-26T11:28:58;99584.25;;;23.88;66.14
67842;BME280;54642;59.126;37.876;2022-07-26T11:34:02;99583.72;;;24.09;66.18
67842;BME280;54642;59.126;37.876;2022-07-26T11:36:40;99568.59;;;24.11;66.04
67842;BME280;54642;59.126;37.876;2022-07-26T11:39:10;99576.97;;;24.17;65.98
67842;BME280;54642;59.126;37.876;2022-07-26T11:41:41;99571.56;;;24.32;65.74
67842;BME280;54642;59.126;37.876;2022-07-26T11:44:18;99559.47;;;24.41;66.07
67842;BME280;54642;59.126;37.876;2022-07-26T11:46:45;99545.81;;;24.34;65.42
67842;BME280;54642;59.126;37.876;2022-07-26T11:49:16;99570.41;;;24.36;65.17
67842;BME280;54642;59.126;37.876;2022-07-26T11:51:55;99573.16;;;24.22;65.04
67842;BME280;54642;59.126;37.876;2022-07-26T11:54:24;99521.06;;;23.84;64.82
67842;BME280;54642;59.126;37.876;2022-07-26T11:56:52;99574.00;;;24.09;65.47
67842;BME280;54642;59.126;37.876;2022-07-26T11:59:19;99525.50;;;23.83;65.55
67842;BME280;54642;59.126;37.876;2022-07-26T12:01:45;99566.38;;;24.05;65.87
67842;BME280;54642;59.126;37.876;2022-07-26T12:04:39;99559.72;;;23.99;65.61
67842;BME280;54642;59.126;37.876;2022-07-26T12:07:16;99545.22;;;23.92;66.02
67842;BME280;54642;59.126;37.876;2022-07-26T12:09:47;99560.75;;;23.96;66.14
67842;BME280;54642;59.126;37.876;2022-07-26T12:12:23;99565.31;;;23.94;66.31
67842;BME280;54642;59.126;37.876;2022-07-26T12:15:03;99554.94;;;23.91;65.92
67842;BME280;54642;59.126;37.876;2022-07-26T12:17:30;99549.66;;;23.91;65.80
67842;BME280;54642;59.126;37.876;2022-07-26T12:20:09;99558.44;;;23.92;65.49
67842;BME280;54642;59.126;37.876;2022-07-26T12:22:35;99554.72;;;23.94;65.83
67842;BME280;54642;59.126;37.876;2022-07-26T12:25:01;99522.00;;;23.70;65.99
67842;BME280;54642;59.126;37.876;2022-07-26T12:27:31;99528.34;;;23.80;66.39
67842;BME280;54642;59.126;37.876;2022-07-26T12:32:37;99513.41;;;23.79;65.71
67842;BME280;54642;59.126;37.876;2022-07-26T12:35:33;99557.59;;;24.04;65.44
67842;BME280;54642;59.126;37.876;2022-07-26T12:38:02;99560.25;;;24.04;66.35
67842;BME280;54642;59.126;37.876;2022-07-26T12:40:30;99564.81;;;24.02;66.15
67842;BME280;54642;59.126;37.876;2022-07-26T12:43:04;99550.94;;;23.98;66.20
67842;BME280;54642;59.126;37.876;2022-07-26T12:45:31;99541.19;;;23.99;66.70
67842;BME280;54642;59.126;37.876;2022-07-26T12:47:59;99544.75;;;24.11;66.06
67842;BME280;54642;59.126;37.876;2022-07-26T12:50:28;99542.03;;;24.25;65.86
67842;BME280;54642;59.126;37.876;2022-07-26T12:53:05;99549.31;;;24.34;64.96
67842;BME280;54642;59.126;37.876;2022-07-26T12:55:33;99516.06;;;24.17;64.75
67842;BME280;54642;59.126;37.876;2022-07-26T12:58:00;99522.50;;;24.39;64.08
67842;BME280;54642;59.126;37.876;2022-07-26T13:00:26;99542.69;;;24.66;63.74
67842;BME280;54642;59.126;37.876;2022-07-26T13:02:52;99543.53;;;24.79;63.11
67842;BME280;54642;59.126;37.876;2022-07-26T13:05:21;99542.75;;;24.90;62.00
67842;BME280;54642;59.126;37.876;2022-07-26T13:07:47;99533.00;;;24.90;62.18
67842;BME280;54642;59.126;37.876;2022-07-26T13:10:13;99537.97;;;24.95;62.29
67842;BME280;54642;59.126;37.876;2022-07-26T13:12:39;99467.16;;;24.60;62.79
67842;BME280;54642;59.126;37.876;2022-07-26T13:15:06;99536.78;;;24.99;62.15
67842;BME280;54642;59.126;37.876;2022-07-26T13:17:32;99518.78;;;24.91;61.94
67842;BME280;54642;59.126;37.876;2022-07-26T13:19:57;99525.66;;;24.94;62.23